This is the latest recevied weather packets stored in our database for station/object N7DQ. If no packets are shown the sender has not sent any weather packets the latest 10 day(s).
| Time | Temp. | Humidity | Pressure | Rain* | Wind** | Luminosity | Snow |
|---|---|---|---|---|---|---|---|
| 1777204805 | 3.89° C | 87% | 1009.8 hPa | 0 mm | - | 0 W/m² | - |
| 1777204504 | 3.89° C | 87% | 1009.9 hPa | 0 mm | - | 0 W/m² | - |
| 1777204205 | 3.89° C | 87% | 1009.9 hPa | 0 mm | - | 0 W/m² | - |
| 1777203904 | 4.44° C | 87% | 1009.8 hPa | 0 mm | - | 0 W/m² | - |
| 1777203605 | 4.44° C | 87% | 1009.8 hPa | 0 mm | - | 0 W/m² | - |
| 1777203305 | 4.44° C | 87% | 1009.6 hPa | 0 mm | - | 0 W/m² | - |
| 1777203004 | 4.44° C | 87% | 1009.7 hPa | 0 mm | - | 0 W/m² | - |
| 1777202705 | 4.44° C | 87% | 1009.7 hPa | 0 mm | - | 0 W/m² | - |
| 1777202405 | 4.44° C | 87% | 1009.6 hPa | 0 mm | - | 0 W/m² | - |
| 1777175706 | 13.89° C | 48% | 1009.1 hPa | 0 mm | - | 0 W/m² | - |
| 1777175405 | 14.44° C | 46% | 1009 hPa | 0 mm | - | 0 W/m² | - |
| 1777175105 | 14.44° C | 46% | 1008.9 hPa | 0 mm | - | 0 W/m² | - |
| 1777174806 | 14.44° C | 46% | 1008.9 hPa | 0 mm | - | 0 W/m² | - |
| 1777174506 | 14.44° C | 46% | 1008.9 hPa | 0 mm | - | 0 W/m² | - |
| 1777174206 | 15° C | 46% | 1008.8 hPa | 0 mm | - | 0 W/m² | - |
| 1777173905 | 15° C | 44% | 1008.8 hPa | 0 mm | - | 0 W/m² | - |
| 1777173606 | 15° C | 44% | 1008.8 hPa | 0 mm | - | 0 W/m² | - |
| 1777173306 | 15.56° C | 44% | 1008.8 hPa | 0 mm | - | 0 W/m² | - |
| 1777173006 | 15.56° C | 44% | 1008.8 hPa | 0 mm | - | 5 W/m² | - |
| 1777172705 | 15.56° C | 44% | 1008.7 hPa | 0 mm | - | 7 W/m² | - |
| 1777172406 | 15.56° C | 44% | 1008.8 hPa | 0 mm | - | 9 W/m² | - |
| 1777147505 | 19.44° C | 34% | 1011.6 hPa | 0 mm | - | 882 W/m² | - |
| 1777147205 | 20° C | 31% | 1011.6 hPa | 0 mm | - | 882 W/m² | - |
| 1777146904 | 20.56° C | 26% | 1011.6 hPa | 0 mm | - | 881 W/m² | - |
| 1777146605 | 20° C | 28% | 1011.7 hPa | 0 mm | - | 877 W/m² | - |
* Rain latest hour (hover to see other rain measurements)
** Current wind speed in m/s (hover to see current wind gust speed)